sensor_id;sensor_type;location;lat;lon;timestamp;temperature;humidity
47600;DHT22;33323;52.124;6.018;2022-11-12T00:02:43;4.00;99.90
47600;DHT22;33323;52.124;6.018;2022-11-12T00:05:28;4.00;99.90
47600;DHT22;33323;52.124;6.018;2022-11-12T00:08:14;3.80;99.90
47600;DHT22;33323;52.124;6.018;2022-11-12T00:11:00;3.70;99.90
47600;DHT22;33323;52.124;6.018;2022-11-12T00:13:46;3.70;99.90
47600;DHT22;33323;52.124;6.018;2022-11-12T00:16:32;4.20;99.90
47600;DHT22;33323;52.124;6.018;2022-11-12T00:19:17;4.10;99.90
47600;DHT22;33323;52.124;6.018;2022-11-12T00:22:03;4.00;99.90
47600;DHT22;33323;52.124;6.018;2022-11-12T00:24:49;4.00;99.90
47600;DHT22;33323;52.124;6.018;2022-11-12T00:27:35;4.00;99.90
47600;DHT22;33323;52.124;6.018;2022-11-12T00:30:20;4.00;99.90
47600;DHT22;33323;52.124;6.018;2022-11-12T00:33:06;3.90;99.90
47600;DHT22;33323;52.124;6.018;2022-11-12T00:35:52;3.70;99.90
47600;DHT22;33323;52.124;6.018;2022-11-12T00:38:37;3.60;99.90
47600;DHT22;33323;52.124;6.018;2022-11-12T00:41:23;3.50;99.90
47600;DHT22;33323;52.124;6.018;2022-11-12T00:44:08;3.60;99.90
47600;DHT22;33323;52.124;6.018;2022-11-12T00:46:54;3.50;99.90
47600;DHT22;33323;52.124;6.018;2022-11-12T00:49:40;3.50;99.90
47600;DHT22;33323;52.124;6.018;2022-11-12T00:52:26;3.50;99.90
47600;DHT22;33323;52.124;6.018;2022-11-12T00:55:11;3.60;99.90
47600;DHT22;33323;52.124;6.018;2022-11-12T00:57:57;3.60;99.90
47600;DHT22;33323;52.124;6.018;2022-11-12T01:00:43;3.40;99.90
47600;DHT22;33323;52.124;6.018;2022-11-12T01:03:28;3.30;99.90
47600;DHT22;33323;52.124;6.018;2022-11-12T01:06:17;3.40;99.90
47600;DHT22;33323;52.124;6.018;2022-11-12T01:09:07;3.40;99.90
47600;DHT22;33323;52.124;6.018;2022-11-12T01:11:53;3.30;99.90
47600;DHT22;33323;52.124;6.018;2022-11-12T01:14:38;3.30;99.90
47600;DHT22;33323;52.124;6.018;2022-11-12T01:17:24;3.30;99.90
47600;DHT22;33323;52.124;6.018;2022-11-12T01:20:10;3.40;99.90
47600;DHT22;33323;52.124;6.018;2022-11-12T01:22:55;3.30;99.90
47600;DHT22;33323;52.124;6.018;2022-11-12T01:25:41;3.30;99.90
47600;DHT22;33323;52.124;6.018;2022-11-12T01:28:27;3.30;99.90
47600;DHT22;33323;52.124;6.018;2022-11-12T01:31:19;3.30;99.90
47600;DHT22;33323;52.124;6.018;2022-11-12T01:34:08;3.20;99.90
47600;DHT22;33323;52.124;6.018;2022-11-12T01:36:59;3.20;99.90
47600;DHT22;33323;52.124;6.018;2022-11-12T01:39:44;3.20;99.90
47600;DHT22;33323;52.124;6.018;2022-11-12T01:42:31;3.10;99.90
47600;DHT22;33323;52.124;6.018;2022-11-12T01:45:17;3.20;99.90
47600;DHT22;33323;52.124;6.018;2022-11-12T01:48:02;3.20;99.90
47600;DHT22;33323;52.124;6.018;2022-11-12T01:50:49;3.20;99.90
47600;DHT22;33323;52.124;6.018;2022-11-12T01:53:36;3.10;99.90
47600;DHT22;33323;52.124;6.018;2022-11-12T01:56:26;3.00;99.90
47600;DHT22;33323;52.124;6.018;2022-11-12T01:59:25;3.00;99.90
47600;DHT22;33323;52.124;6.018;2022-11-12T02:02:12;3.00;99.90
47600;DHT22;33323;52.124;6.018;2022-11-12T02:04:58;3.00;99.90
47600;DHT22;33323;52.124;6.018;2022-11-12T02:07:46;3.00;99.90
47600;DHT22;33323;52.124;6.018;2022-11-12T02:10:33;3.00;99.90
47600;DHT22;33323;52.124;6.018;2022-11-12T02:13:19;3.00;99.90
47600;DHT22;33323;52.124;6.018;2022-11-12T02:16:44;3.10;99.90
47600;DHT22;33323;52.124;6.018;2022-11-12T02:19:30;3.10;99.90
47600;DHT22;33323;52.124;6.018;2022-11-12T02:22:15;3.10;99.90
47600;DHT22;33323;52.124;6.018;2022-11-12T02:25:01;3.10;99.90
47600;DHT22;33323;52.124;6.018;2022-11-12T02:27:47;3.00;99.90
47600;DHT22;33323;52.124;6.018;2022-11-12T02:33:24;3.00;99.90
47600;DHT22;33323;52.124;6.018;2022-11-12T02:36:10;2.80;99.90
47600;DHT22;33323;52.124;6.018;2022-11-12T02:38:56;2.90;99.90
47600;DHT22;33323;52.124;6.018;2022-11-12T02:41:42;2.90;99.90
47600;DHT22;33323;52.124;6.018;2022-11-12T02:44:29;2.90;99.90
47600;DHT22;33323;52.124;6.018;2022-11-12T02:47:15;2.90;99.90
47600;DHT22;33323;52.124;6.018;2022-11-12T02:50:00;2.90;99.90
47600;DHT22;33323;52.124;6.018;2022-11-12T02:52:46;2.90;99.90
47600;DHT22;33323;52.124;6.018;2022-11-12T02:55:32;2.90;99.90
47600;DHT22;33323;52.124;6.018;2022-11-12T02:58:17;2.80;99.90
47600;DHT22;33323;52.124;6.018;2022-11-12T03:01:03;2.80;99.90
47600;DHT22;33323;52.124;6.018;2022-11-12T03:03:49;2.90;99.90
47600;DHT22;33323;52.124;6.018;2022-11-12T03:06:35;2.90;99.90
47600;DHT22;33323;52.124;6.018;2022-11-12T03:09:21;2.90;99.90
47600;DHT22;33323;52.124;6.018;2022-11-12T03:12:07;3.00;99.90
47600;DHT22;33323;52.124;6.018;2022-11-12T03:14:53;2.90;99.90
47600;DHT22;33323;52.124;6.018;2022-11-12T03:17:38;2.80;99.90
47600;DHT22;33323;52.124;6.018;2022-11-12T03:20:25;2.80;99.90
47600;DHT22;33323;52.124;6.018;2022-11-12T03:23:10;2.90;99.90
47600;DHT22;33323;52.124;6.018;2022-11-12T03:25:56;2.90;99.90
47600;DHT22;33323;52.124;6.018;2022-11-12T03:28:42;2.70;99.90
47600;DHT22;33323;52.124;6.018;2022-11-12T03:31:27;2.80;99.90
47600;DHT22;33323;52.124;6.018;2022-11-12T03:34:13;2.80;99.90
47600;DHT22;33323;52.124;6.018;2022-11-12T03:36:59;2.70;99.90
47600;DHT22;33323;52.124;6.018;2022-11-12T03:39:44;2.80;99.90
47600;DHT22;33323;52.124;6.018;2022-11-12T03:42:30;2.80;99.90
47600;DHT22;33323;52.124;6.018;2022-11-12T03:45:16;2.80;99.90
47600;DHT22;33323;52.124;6.018;2022-11-12T03:48:03;2.70;99.90
47600;DHT22;33323;52.124;6.018;2022-11-12T03:50:48;2.70;99.90
47600;DHT22;33323;52.124;6.018;2022-11-12T03:53:34;2.70;99.90
47600;DHT22;33323;52.124;6.018;2022-11-12T03:56:19;2.80;99.90
47600;DHT22;33323;52.124;6.018;2022-11-12T03:59:05;2.80;99.90
47600;DHT22;33323;52.124;6.018;2022-11-12T04:01:51;2.80;99.90
47600;DHT22;33323;52.124;6.018;2022-11-12T04:04:36;2.80;99.90
47600;DHT22;33323;52.124;6.018;2022-11-12T04:07:40;2.80;99.90
47600;DHT22;33323;52.124;6.018;2022-11-12T04:10:45;2.70;99.90
47600;DHT22;33323;52.124;6.018;2022-11-12T04:13:31;2.70;99.90
47600;DHT22;33323;52.124;6.018;2022-11-12T04:16:19;2.60;99.90
47600;DHT22;33323;52.124;6.018;2022-11-12T04:19:23;2.50;99.90
47600;DHT22;33323;52.124;6.018;2022-11-12T04:22:28;2.60;99.90
47600;DHT22;33323;52.124;6.018;2022-11-12T04:25:13;2.70;99.90
47600;DHT22;33323;52.124;6.018;2022-11-12T04:28:18;2.70;99.90
47600;DHT22;33323;52.124;6.018;2022-11-12T04:31:03;2.60;99.90
47600;DHT22;33323;52.124;6.018;2022-11-12T04:33:49;2.70;99.90
47600;DHT22;33323;52.124;6.018;2022-11-12T04:36:35;2.70;99.90
47600;DHT22;33323;52.124;6.018;2022-11-12T04:39:21;2.60;99.90
47600;DHT22;33323;52.124;6.018;2022-11-12T04:42:08;2.60;99.90
47600;DHT22;33323;52.124;6.018;2022-11-12T04:45:13;2.50;99.90
47600;DHT22;33323;52.124;6.018;2022-11-12T04:47:58;2.40;99.90
47600;DHT22;33323;52.124;6.018;2022-11-12T04:50:46;2.40;99.90
47600;DHT22;33323;52.124;6.018;2022-11-12T04:53:33;2.50;99.90
47600;DHT22;33323;52.124;6.018;2022-11-12T04:56:19;2.40;99.90
47600;DHT22;33323;52.124;6.018;2022-11-12T04:59:04;2.50;99.90
47600;DHT22;33323;52.124;6.018;2022-11-12T05:01:50;2.70;99.90
47600;DHT22;33323;52.124;6.018;2022-11-12T05:04:36;2.60;99.90
47600;DHT22;33323;52.124;6.018;2022-11-12T05:07:21;2.50;99.90
47600;DHT22;33323;52.124;6.018;2022-11-12T05:10:08;2.50;99.90
47600;DHT22;33323;52.124;6.018;2022-11-12T05:12:54;2.40;99.90
47600;DHT22;33323;52.124;6.018;2022-11-12T05:15:39;2.30;99.90
47600;DHT22;33323;52.124;6.018;2022-11-12T05:18:28;2.40;99.90
47600;DHT22;33323;52.124;6.018;2022-11-12T05:21:14;2.30;99.90
47600;DHT22;33323;52.124;6.018;2022-11-12T05:24:23;2.40;99.90
47600;DHT22;33323;52.124;6.018;2022-11-12T05:27:25;2.40;99.90
47600;DHT22;33323;52.124;6.018;2022-11-12T05:30:12;2.40;99.90
47600;DHT22;33323;52.124;6.018;2022-11-12T05:32:58;2.30;99.90
47600;DHT22;33323;52.124;6.018;2022-11-12T05:35:43;2.30;99.90
47600;DHT22;33323;52.124;6.018;2022-11-12T05:38:29;2.30;99.90
47600;DHT22;33323;52.124;6.018;2022-11-12T05:41:14;2.40;99.90
47600;DHT22;33323;52.124;6.018;2022-11-12T05:44:05;2.40;99.90
47600;DHT22;33323;52.124;6.018;2022-11-12T05:46:50;2.40;99.90
47600;DHT22;33323;52.124;6.018;2022-11-12T05:49:36;2.30;99.90
47600;DHT22;33323;52.124;6.018;2022-11-12T05:52:22;2.20;99.90
47600;DHT22;33323;52.124;6.018;2022-11-12T05:55:08;2.20;99.90
47600;DHT22;33323;52.124;6.018;2022-11-12T05:57:53;2.20;99.90
47600;DHT22;33323;52.124;6.018;2022-11-12T06:00:39;2.20;99.90
47600;DHT22;33323;52.124;6.018;2022-11-12T06:03:25;2.30;99.90
47600;DHT22;33323;52.124;6.018;2022-11-12T06:06:11;2.30;99.90
47600;DHT22;33323;52.124;6.018;2022-11-12T06:08:56;2.20;99.90
47600;DHT22;33323;52.124;6.018;2022-11-12T06:11:43;2.10;99.90
47600;DHT22;33323;52.124;6.018;2022-11-12T06:14:29;2.10;99.90
47600;DHT22;33323;52.124;6.018;2022-11-12T06:17:14;2.10;99.90
47600;DHT22;33323;52.124;6.018;2022-11-12T06:20:00;2.10;99.90
47600;DHT22;33323;52.124;6.018;2022-11-12T06:22:46;2.10;99.90
47600;DHT22;33323;52.124;6.018;2022-11-12T06:25:32;2.10;99.90
47600;DHT22;33323;52.124;6.018;2022-11-12T06:28:18;2.20;99.90
47600;DHT22;33323;52.124;6.018;2022-11-12T06:31:03;2.30;99.90
47600;DHT22;33323;52.124;6.018;2022-11-12T06:33:49;2.20;99.90
47600;DHT22;33323;52.124;6.018;2022-11-12T06:36:35;2.10;99.90
47600;DHT22;33323;52.124;6.018;2022-11-12T06:39:20;2.20;99.90
47600;DHT22;33323;52.124;6.018;2022-11-12T06:42:06;2.20;99.90
47600;DHT22;33323;52.124;6.018;2022-11-12T06:44:51;2.10;99.90
47600;DHT22;33323;52.124;6.018;2022-11-12T06:47:37;2.20;99.90
47600;DHT22;33323;52.124;6.018;2022-11-12T06:50:23;2.20;99.90
47600;DHT22;33323;52.124;6.018;2022-11-12T06:53:08;2.10;99.90
47600;DHT22;33323;52.124;6.018;2022-11-12T06:56:00;2.10;99.90
47600;DHT22;33323;52.124;6.018;2022-11-12T06:58:47;2.10;99.90
47600;DHT22;33323;52.124;6.018;2022-11-12T07:01:32;2.20;99.90
47600;DHT22;33323;52.124;6.018;2022-11-12T07:04:20;2.20;99.90
47600;DHT22;33323;52.124;6.018;2022-11-12T07:07:05;2.10;99.90
47600;DHT22;33323;52.124;6.018;2022-11-12T07:09:55;2.10;99.90
47600;DHT22;33323;52.124;6.018;2022-11-12T07:12:41;2.10;99.90
47600;DHT22;33323;52.124;6.018;2022-11-12T07:15:27;2.20;99.90
47600;DHT22;33323;52.124;6.018;2022-11-12T07:18:12;2.30;99.90
47600;DHT22;33323;52.124;6.018;2022-11-12T07:23:52;2.30;99.90
47600;DHT22;33323;52.124;6.018;2022-11-12T07:26:39;2.30;99.90
47600;DHT22;33323;52.124;6.018;2022-11-12T07:29:31;2.30;99.90
47600;DHT22;33323;52.124;6.018;2022-11-12T07:32:32;2.40;99.90
47600;DHT22;33323;52.124;6.018;2022-11-12T07:35:24;2.70;99.90
47600;DHT22;33323;52.124;6.018;2022-11-12T07:38:09;3.20;99.90
47600;DHT22;33323;52.124;6.018;2022-11-12T07:43:55;3.70;99.90
47600;DHT22;33323;52.124;6.018;2022-11-12T07:46:41;4.40;99.90
47600;DHT22;33323;52.124;6.018;2022-11-12T07:49:27;5.10;99.90
47600;DHT22;33323;52.124;6.018;2022-11-12T07:52:12;6.00;99.90
47600;DHT22;33323;52.124;6.018;2022-11-12T07:54:58;6.70;99.90
47600;DHT22;33323;52.124;6.018;2022-11-12T07:57:44;7.20;99.90
47600;DHT22;33323;52.124;6.018;2022-11-12T08:00:29;7.60;99.90
47600;DHT22;33323;52.124;6.018;2022-11-12T08:03:15;7.90;99.90
47600;DHT22;33323;52.124;6.018;2022-11-12T08:06:01;8.00;99.90
47600;DHT22;33323;52.124;6.018;2022-11-12T08:08:50;8.60;98.00
47600;DHT22;33323;52.124;6.018;2022-11-12T08:11:36;9.00;96.90
47600;DHT22;33323;52.124;6.018;2022-11-12T08:14:22;9.30;96.00
47600;DHT22;33323;52.124;6.018;2022-11-12T08:17:08;9.60;95.40
47600;DHT22;33323;52.124;6.018;2022-11-12T08:19:54;9.40;95.60
47600;DHT22;33323;52.124;6.018;2022-11-12T08:22:40;9.60;95.60
47600;DHT22;33323;52.124;6.018;2022-11-12T08:25:33;9.80;95.40
47600;DHT22;33323;52.124;6.018;2022-11-12T08:28:18;9.90;95.30
47600;DHT22;33323;52.124;6.018;2022-11-12T08:31:06;10.00;95.90
47600;DHT22;33323;52.124;6.018;2022-11-12T08:33:59;10.30;96.40
47600;DHT22;33323;52.124;6.018;2022-11-12T08:36:55;10.40;96.60
47600;DHT22;33323;52.124;6.018;2022-11-12T08:39:41;11.00;95.80
47600;DHT22;33323;52.124;6.018;2022-11-12T08:42:27;11.20;95.80
47600;DHT22;33323;52.124;6.018;2022-11-12T08:45:13;11.50;94.80
47600;DHT22;33323;52.124;6.018;2022-11-12T08:48:00;12.20;93.40
47600;DHT22;33323;52.124;6.018;2022-11-12T08:50:46;12.20;93.70
47600;DHT22;33323;52.124;6.018;2022-11-12T08:53:32;12.20;94.20
47600;DHT22;33323;52.124;6.018;2022-11-12T08:56:17;12.30;93.30
47600;DHT22;33323;52.124;6.018;2022-11-12T08:59:03;12.30;93.30
47600;DHT22;33323;52.124;6.018;2022-11-12T09:01:51;12.50;93.30
47600;DHT22;33323;52.124;6.018;2022-11-12T09:04:37;13.00;92.50
47600;DHT22;33323;52.124;6.018;2022-11-12T09:07:22;12.70;93.30
47600;DHT22;33323;52.124;6.018;2022-11-12T09:10:28;12.90;93.10
47600;DHT22;33323;52.124;6.018;2022-11-12T09:13:14;12.90;93.50
47600;DHT22;33323;52.124;6.018;2022-11-12T09:16:06;12.90;93.60
47600;DHT22;33323;52.124;6.018;2022-11-12T09:18:51;12.80;94.00
47600;DHT22;33323;52.124;6.018;2022-11-12T09:21:37;12.90;94.20
47600;DHT22;33323;52.124;6.018;2022-11-12T09:24:23;12.90;94.00
47600;DHT22;33323;52.124;6.018;2022-11-12T09:27:09;13.00;94.30
47600;DHT22;33323;52.124;6.018;2022-11-12T09:29:55;13.30;93.70
47600;DHT22;33323;52.124;6.018;2022-11-12T09:32:40;13.30;94.10
47600;DHT22;33323;52.124;6.018;2022-11-12T09:35:26;13.50;93.60
47600;DHT22;33323;52.124;6.018;2022-11-12T09:38:12;13.60;93.90
47600;DHT22;33323;52.124;6.018;2022-11-12T09:41:20;13.50;94.50
47600;DHT22;33323;52.124;6.018;2022-11-12T09:44:20;13.40;95.20
47600;DHT22;33323;52.124;6.018;2022-11-12T09:47:30;13.30;96.40
47600;DHT22;33323;52.124;6.018;2022-11-12T09:50:26;13.20;95.90
47600;DHT22;33323;52.124;6.018;2022-11-12T09:53:17;13.20;96.10
47600;DHT22;33323;52.124;6.018;2022-11-12T09:56:07;13.30;96.70
47600;DHT22;33323;52.124;6.018;2022-11-12T09:58:55;13.20;96.90
47600;DHT22;33323;52.124;6.018;2022-11-12T10:05:18;13.00;98.20
47600;DHT22;33323;52.124;6.018;2022-11-12T10:15:45;13.10;98.40
47600;DHT22;33323;52.124;6.018;2022-11-12T10:25:43;13.40;99.30
47600;DHT22;33323;52.124;6.018;2022-11-12T10:28:37;13.60;99.00
47600;DHT22;33323;52.124;6.018;2022-11-12T10:31:26;13.60;98.40
47600;DHT22;33323;52.124;6.018;2022-11-12T10:34:20;13.80;98.30
47600;DHT22;33323;52.124;6.018;2022-11-12T10:37:13;13.90;97.80
47600;DHT22;33323;52.124;6.018;2022-11-12T10:46:17;13.70;98.40
47600;DHT22;33323;52.124;6.018;2022-11-12T10:49:26;13.70;98.10
47600;DHT22;33323;52.124;6.018;2022-11-12T10:52:23;13.70;98.60
47600;DHT22;33323;52.124;6.018;2022-11-12T10:55:21;13.80;98.30
47600;DHT22;33323;52.124;6.018;2022-11-12T11:01:02;13.90;98.00
47600;DHT22;33323;52.124;6.018;2022-11-12T11:03:56;13.90;98.30
47600;DHT22;33323;52.124;6.018;2022-11-12T11:06:42;13.70;99.10
47600;DHT22;33323;52.124;6.018;2022-11-12T11:09:28;13.80;99.30
47600;DHT22;33323;52.124;6.018;2022-11-12T11:12:28;14.00;99.20
47600;DHT22;33323;52.124;6.018;2022-11-12T11:15:19;14.00;99.50
47600;DHT22;33323;52.124;6.018;2022-11-12T11:18:10;14.00;98.70
47600;DHT22;33323;52.124;6.018;2022-11-12T11:21:33;13.90;99.90
47600;DHT22;33323;52.124;6.018;2022-11-12T11:24:53;13.90;99.40
47600;DHT22;33323;52.124;6.018;2022-11-12T11:34:48;14.00;99.30
47600;DHT22;33323;52.124;6.018;2022-11-12T11:37:48;14.00;99.00
47600;DHT22;33323;52.124;6.018;2022-11-12T11:44:23;14.10;99.90
47600;DHT22;33323;52.124;6.018;2022-11-12T11:50:41;14.30;99.50
47600;DHT22;33323;52.124;6.018;2022-11-12T11:53:42;14.30;99.20
47600;DHT22;33323;52.124;6.018;2022-11-12T11:56:37;14.30;99.90
47600;DHT22;33323;52.124;6.018;2022-11-12T12:15:48;14.50;97.70
47600;DHT22;33323;52.124;6.018;2022-11-12T12:19:47;14.60;98.50
47600;DHT22;33323;52.124;6.018;2022-11-12T12:22:25;14.70;98.00
47600;DHT22;33323;52.124;6.018;2022-11-12T12:25:30;14.70;98.90
47600;DHT22;33323;52.124;6.018;2022-11-12T12:28:34;14.60;97.90
47600;DHT22;33323;52.124;6.018;2022-11-12T12:31:30;14.70;98.50
47600;DHT22;33323;52.124;6.018;2022-11-12T12:34:21;14.70;97.60
47600;DHT22;33323;52.124;6.018;2022-11-12T12:40:34;14.60;97.00
47600;DHT22;33323;52.124;6.018;2022-11-12T12:46:29;14.80;97.00
47600;DHT22;33323;52.124;6.018;2022-11-12T12:49:20;14.70;96.50
47600;DHT22;33323;52.124;6.018;2022-11-12T12:52:13;14.60;97.40
47600;DHT22;33323;52.124;6.018;2022-11-12T12:54:59;14.60;97.70
47600;DHT22;33323;52.124;6.018;2022-11-12T12:57:44;14.60;97.70
47600;DHT22;33323;52.124;6.018;2022-11-12T13:00:39;14.60;98.90
47600;DHT22;33323;52.124;6.018;2022-11-12T13:06:34;14.60;98.70
47600;DHT22;33323;52.124;6.018;2022-11-12T13:09:23;14.60;99.10
47600;DHT22;33323;52.124;6.018;2022-11-12T13:12:10;14.60;97.90
47600;DHT22;33323;52.124;6.018;2022-11-12T13:15:15;14.50;98.70
47600;DHT22;33323;52.124;6.018;2022-11-12T13:18:00;14.50;98.60
47600;DHT22;33323;52.124;6.018;2022-11-12T13:21:18;14.50;98.30
47600;DHT22;33323;52.124;6.018;2022-11-12T13:24:08;14.50;97.90
47600;DHT22;33323;52.124;6.018;2022-11-12T13:27:00;14.40;98.80
47600;DHT22;33323;52.124;6.018;2022-11-12T13:29:46;14.40;98.00
47600;DHT22;33323;52.124;6.018;2022-11-12T13:35:37;14.50;98.40
47600;DHT22;33323;52.124;6.018;2022-11-12T13:38:24;14.50;98.90
47600;DHT22;33323;52.124;6.018;2022-11-12T13:44:04;14.60;97.90
47600;DHT22;33323;52.124;6.018;2022-11-12T13:46:52;14.60;97.50
47600;DHT22;33323;52.124;6.018;2022-11-12T13:49:41;14.60;97.70
47600;DHT22;33323;52.124;6.018;2022-11-12T13:52:28;14.70;97.70
47600;DHT22;33323;52.124;6.018;2022-11-12T13:55:19;14.60;98.00
47600;DHT22;33323;52.124;6.018;2022-11-12T13:58:15;14.50;98.30
47600;DHT22;33323;52.124;6.018;2022-11-12T14:01:04;14.40;99.30
47600;DHT22;33323;52.124;6.018;2022-11-12T14:03:52;14.40;99.30
47600;DHT22;33323;52.124;6.018;2022-11-12T14:06:41;14.40;99.50
47600;DHT22;33323;52.124;6.018;2022-11-12T14:10:04;14.40;99.40
47600;DHT22;33323;52.124;6.018;2022-11-12T14:19:59;14.30;99.50
47600;DHT22;33323;52.124;6.018;2022-11-12T14:22:48;14.20;99.90
47600;DHT22;33323;52.124;6.018;2022-11-12T14:25:33;14.10;99.90
47600;DHT22;33323;52.124;6.018;2022-11-12T14:28:27;14.10;99.90
47600;DHT22;33323;52.124;6.018;2022-11-12T14:31:23;14.10;99.90
47600;DHT22;33323;52.124;6.018;2022-11-12T14:34:29;14.00;99.90
47600;DHT22;33323;52.124;6.018;2022-11-12T14:37:35;13.90;99.90
47600;DHT22;33323;52.124;6.018;2022-11-12T14:40:30;13.80;99.90
47600;DHT22;33323;52.124;6.018;2022-11-12T14:43:41;13.70;99.90
47600;DHT22;33323;52.124;6.018;2022-11-12T14:46:37;13.70;99.90
47600;DHT22;33323;52.124;6.018;2022-11-12T14:49:29;13.70;99.90
47600;DHT22;33323;52.124;6.018;2022-11-12T14:52:21;13.60;99.90
47600;DHT22;33323;52.124;6.018;2022-11-12T14:55:20;13.60;99.90
47600;DHT22;33323;52.124;6.018;2022-11-12T14:58:13;13.60;99.90
47600;DHT22;33323;52.124;6.018;2022-11-12T15:01:18;13.70;99.90
47600;DHT22;33323;52.124;6.018;2022-11-12T15:04:36;13.80;99.90
47600;DHT22;33323;52.124;6.018;2022-11-12T15:07:34;13.70;99.90
47600;DHT22;33323;52.124;6.018;2022-11-12T15:10:43;13.70;99.70
47600;DHT22;33323;52.124;6.018;2022-11-12T15:13:37;13.70;99.60
47600;DHT22;33323;52.124;6.018;2022-11-12T15:16:26;13.60;99.90
47600;DHT22;33323;52.124;6.018;2022-11-12T15:19:25;13.50;99.90
47600;DHT22;33323;52.124;6.018;2022-11-12T15:22:21;13.40;99.90
47600;DHT22;33323;52.124;6.018;2022-11-12T15:25:22;13.30;99.90
47600;DHT22;33323;52.124;6.018;2022-11-12T15:28:18;13.20;99.90
47600;DHT22;33323;52.124;6.018;2022-11-12T15:31:19;12.90;99.90
47600;DHT22;33323;52.124;6.018;2022-11-12T15:40:11;12.90;99.90
47600;DHT22;33323;52.124;6.018;2022-11-12T15:43:01;12.60;99.90
47600;DHT22;33323;52.124;6.018;2022-11-12T15:45:48;12.50;99.90
47600;DHT22;33323;52.124;6.018;2022-11-12T15:48:35;12.20;99.90
47600;DHT22;33323;52.124;6.018;2022-11-12T15:51:20;11.70;99.90
47600;DHT22;33323;52.124;6.018;2022-11-12T15:54:06;11.50;99.90
47600;DHT22;33323;52.124;6.018;2022-11-12T15:56:52;11.10;99.90
47600;DHT22;33323;52.124;6.018;2022-11-12T15:59:39;10.80;99.90
47600;DHT22;33323;52.124;6.018;2022-11-12T16:02:25;10.60;99.90
47600;DHT22;33323;52.124;6.018;2022-11-12T16:05:13;10.60;99.90
47600;DHT22;33323;52.124;6.018;2022-11-12T16:07:59;10.50;99.90
47600;DHT22;33323;52.124;6.018;2022-11-12T16:10:46;10.40;99.90
47600;DHT22;33323;52.124;6.018;2022-11-12T16:13:32;10.20;99.90
47600;DHT22;33323;52.124;6.018;2022-11-12T16:16:18;10.00;99.90
47600;DHT22;33323;52.124;6.018;2022-11-12T16:19:10;9.80;99.90
47600;DHT22;33323;52.124;6.018;2022-11-12T16:22:00;9.60;99.90
47600;DHT22;33323;52.124;6.018;2022-11-12T16:24:46;9.70;99.90
47600;DHT22;33323;52.124;6.018;2022-11-12T16:27:31;9.60;99.90
47600;DHT22;33323;52.124;6.018;2022-11-12T16:30:22;9.50;99.90
47600;DHT22;33323;52.124;6.018;2022-11-12T16:33:17;9.40;99.90
47600;DHT22;33323;52.124;6.018;2022-11-12T16:36:03;9.30;99.90
47600;DHT22;33323;52.124;6.018;2022-11-12T16:38:54;9.20;99.90
47600;DHT22;33323;52.124;6.018;2022-11-12T16:41:40;9.10;99.90
47600;DHT22;33323;52.124;6.018;2022-11-12T16:44:25;9.50;99.90
47600;DHT22;33323;52.124;6.018;2022-11-12T16:47:12;9.80;99.90
47600;DHT22;33323;52.124;6.018;2022-11-12T16:49:58;9.80;99.90
47600;DHT22;33323;52.124;6.018;2022-11-12T16:52:43;9.90;99.90
47600;DHT22;33323;52.124;6.018;2022-11-12T16:55:29;9.80;99.90
47600;DHT22;33323;52.124;6.018;2022-11-12T16:58:15;9.50;99.90
47600;DHT22;33323;52.124;6.018;2022-11-12T17:01:01;9.30;99.90
47600;DHT22;33323;52.124;6.018;2022-11-12T17:03:46;9.20;99.90
47600;DHT22;33323;52.124;6.018;2022-11-12T17:06:35;9.00;99.90
47600;DHT22;33323;52.124;6.018;2022-11-12T17:09:24;8.90;99.90
47600;DHT22;33323;52.124;6.018;2022-11-12T17:12:10;8.80;99.90
47600;DHT22;33323;52.124;6.018;2022-11-12T17:14:56;8.70;99.90
47600;DHT22;33323;52.124;6.018;2022-11-12T17:17:41;8.50;99.90
47600;DHT22;33323;52.124;6.018;2022-11-12T17:20:27;8.50;99.90
47600;DHT22;33323;52.124;6.018;2022-11-12T17:23:13;8.40;99.90
47600;DHT22;33323;52.124;6.018;2022-11-12T17:26:00;8.30;99.90
47600;DHT22;33323;52.124;6.018;2022-11-12T17:28:47;8.40;99.90
47600;DHT22;33323;52.124;6.018;2022-11-12T17:31:40;8.40;99.90
47600;DHT22;33323;52.124;6.018;2022-11-12T17:34:25;8.30;99.90
47600;DHT22;33323;52.124;6.018;2022-11-12T17:37:11;8.20;99.90
47600;DHT22;33323;52.124;6.018;2022-11-12T17:39:56;8.00;99.90
47600;DHT22;33323;52.124;6.018;2022-11-12T17:42:42;7.80;99.90
47600;DHT22;33323;52.124;6.018;2022-11-12T17:45:28;7.90;99.90
47600;DHT22;33323;52.124;6.018;2022-11-12T17:48:14;7.80;99.90
47600;DHT22;33323;52.124;6.018;2022-11-12T17:51:12;7.70;99.90
47600;DHT22;33323;52.124;6.018;2022-11-12T17:53:58;7.60;99.90
47600;DHT22;33323;52.124;6.018;2022-11-12T17:56:44;7.60;99.90
47600;DHT22;33323;52.124;6.018;2022-11-12T17:59:31;7.60;99.90
47600;DHT22;33323;52.124;6.018;2022-11-12T18:02:17;7.50;99.90
47600;DHT22;33323;52.124;6.018;2022-11-12T18:05:03;7.40;99.90
47600;DHT22;33323;52.124;6.018;2022-11-12T18:07:49;7.40;99.90
47600;DHT22;33323;52.124;6.018;2022-11-12T18:10:35;7.60;99.90
47600;DHT22;33323;52.124;6.018;2022-11-12T18:13:22;7.40;99.90
47600;DHT22;33323;52.124;6.018;2022-11-12T18:16:16;7.30;99.90
47600;DHT22;33323;52.124;6.018;2022-11-12T18:19:07;7.20;99.90
47600;DHT22;33323;52.124;6.018;2022-11-12T18:21:55;7.20;99.90
47600;DHT22;33323;52.124;6.018;2022-11-12T18:24:41;7.20;99.90
47600;DHT22;33323;52.124;6.018;2022-11-12T18:27:27;7.20;99.90
47600;DHT22;33323;52.124;6.018;2022-11-12T18:30:13;7.20;99.90
47600;DHT22;33323;52.124;6.018;2022-11-12T18:33:03;7.20;99.90
47600;DHT22;33323;52.124;6.018;2022-11-12T18:36:09;7.10;99.90
47600;DHT22;33323;52.124;6.018;2022-11-12T18:38:56;7.10;99.90
47600;DHT22;33323;52.124;6.018;2022-11-12T18:41:42;7.20;99.90
47600;DHT22;33323;52.124;6.018;2022-11-12T18:44:27;7.20;99.90
47600;DHT22;33323;52.124;6.018;2022-11-12T18:47:13;7.00;99.90
47600;DHT22;33323;52.124;6.018;2022-11-12T18:49:59;6.90;99.90
47600;DHT22;33323;52.124;6.018;2022-11-12T18:52:52;7.00;99.90
47600;DHT22;33323;52.124;6.018;2022-11-12T18:55:38;7.00;99.90
47600;DHT22;33323;52.124;6.018;2022-11-12T18:58:25;6.80;99.90
47600;DHT22;33323;52.124;6.018;2022-11-12T19:01:20;6.70;99.90
47600;DHT22;33323;52.124;6.018;2022-11-12T19:04:09;6.60;99.90
47600;DHT22;33323;52.124;6.018;2022-11-12T19:06:55;6.50;99.90
47600;DHT22;33323;52.124;6.018;2022-11-12T19:09:41;6.50;99.90
47600;DHT22;33323;52.124;6.018;2022-11-12T19:12:27;6.50;99.90
47600;DHT22;33323;52.124;6.018;2022-11-12T19:15:13;6.40;99.90
47600;DHT22;33323;52.124;6.018;2022-11-12T19:17:59;6.40;99.90
47600;DHT22;33323;52.124;6.018;2022-11-12T19:20:48;6.40;99.90
47600;DHT22;33323;52.124;6.018;2022-11-12T19:23:36;6.40;99.90
47600;DHT22;33323;52.124;6.018;2022-11-12T19:26:23;6.30;99.90
47600;DHT22;33323;52.124;6.018;2022-11-12T19:29:08;6.40;99.90
47600;DHT22;33323;52.124;6.018;2022-11-12T19:31:54;6.40;99.90
47600;DHT22;33323;52.124;6.018;2022-11-12T19:34:40;6.30;99.90
47600;DHT22;33323;52.124;6.018;2022-11-12T19:37:25;6.40;99.90